Main page
METAR-TAF:

METAR-TAF

Airports :

Kuusamo Airport

Kuusamo, Finland

latitude: 65-58N, longitude: 029-11E, elevation: 262 m

Current weather observation

The report was made 12 minutes ago, at 05:20 UTC
Wind 11 kt from the Southwest, varying between South/Southwest and West
Temperature 5°C
Humidity 75%
Pressure 1017 hPa
Visibility 10 km or more
no clouds below 1500 m and no cumulonimbus

METAR: EFKS 210520Z AUTO 23011KT 200V260 CAVOK 05/01 Q1017

Time: 08:32 (05:32 UTC)

Forecast

The report was made 11 hours and 54 minutes ago, at 17:38 UTC
Forecast valid from 20 at 18 UTC to 20 at 20 UTC
Wind 6 kt from the West/Southwest
Visibility 10 km or more
no clouds below 1500 m and no cumulonimbus

TAF: EFKS 201738Z 2018/2020 24006KT CAVOK

Weather observations and forecasts of more than 4000 airports (METAR and TAF reports).

The available stations are represented by yellow and red dots on the map.

Hover mouse over dot to see the name of the station.

Then click to see weather observations and forecasts.

To change the map : click on the green buttons with a black cross to zoom in, on the green button with a dash to zoom out, or on the green arrows for adjacent maps.


METAR-TAF: